Terminal Aerodrome Forecast
Issued by NWS

Home | Current Version | Previous Version | Text Only | Print | Product List | Glossary On
Versions: 1 2 3 4 5 6 7 8 9 10 11 12 13
000
FTUS43 KOAX 221516 AAA
TAFBFF
TAF AMD
KBFF 221516Z 2215/2312 30013KT P6SM BKN100
     FM221800 31023G33KT P6SM SCT050 BKN100
     FM230400 31027G40KT 6SM -SN BKN025 OVC050=

USA.gov is the U.S. government's official web portal to all federal, state and local government web resources and services.